Time;durP1;ratioP1;P1;durP2;ratioP2;P2;SDS_P1;SDS_P2;PMS_P1;PMS_P2;Temp;Humidity;BMP_temperature;BMP_pressure;BME280_temperature;BME280_humidity;BME280_pressure;Samples;Min_cycle;Max_cycle;Signal;HPM_P1;HPM_P2
2022/03/02 00:02:46;;;;;;;203.70;101.75;;;;;;;14.91;100.00;99019.31;4921760;29;20048;-70
2022/03/02 00:05:36;;;;;;;186.80;99.25;;;;;;;14.95;100.00;99028.66;4920477;29;20063;-69
2022/03/02 00:08:19;;;;;;;210.38;102.70;;;;;;;14.98;100.00;99025.09;4943274;29;20053;-69
2022/03/02 00:11:16;;;;;;;211.05;101.95;;;;;;;14.96;100.00;99021.72;4949694;28;20053;-69
2022/03/02 00:13:51;;;;;;;204.15;104.32;;;;;;;14.90;100.00;99028.00;4950400;29;20773;-68
2022/03/02 00:16:46;;;;;;;218.27;105.70;;;;;;;14.82;100.00;99023.16;4933083;29;20082;-69
2022/03/02 00:19:21;;;;;;;217.05;108.22;;;;;;;14.81;100.00;99029.22;4930597;29;20066;-69
2022/03/02 00:22:11;;;;;;;218.68;105.68;;;;;;;14.79;100.00;99025.84;4925362;28;20139;-69
2022/03/02 00:24:53;;;;;;;220.30;109.47;;;;;;;14.77;100.00;99019.88;4920520;29;20758;-69
2022/03/02 00:27:42;;;;;;;221.20;110.95;;;;;;;14.76;100.00;99026.00;4924865;29;20095;-68
2022/03/02 00:30:26;;;;;;;223.50;117.07;;;;;;;14.63;100.00;99024.78;4929759;28;20143;-69
2022/03/02 00:33:15;;;;;;;231.73;118.32;;;;;;;14.66;100.00;99032.47;4945166;28;20491;-68
2022/03/02 00:35:57;;;;;;;244.13;122.20;;;;;;;14.59;100.00;99032.78;4930983;29;20068;-69
2022/03/02 00:38:46;;;;;;;243.10;122.07;;;;;;;14.71;100.00;99030.50;4927948;29;20055;-68
2022/03/02 00:41:28;;;;;;;245.77;122.43;;;;;;;14.76;100.00;99041.56;4923166;28;20055;-69
2022/03/02 00:44:23;;;;;;;281.75;131.20;;;;;;;14.54;100.00;99036.38;4925892;29;20055;-68
2022/03/02 00:46:59;;;;;;;252.43;130.15;;;;;;;14.46;100.00;99047.97;4930227;29;20122;-68
2022/03/02 00:49:54;;;;;;;266.30;130.63;;;;;;;14.44;100.00;99045.47;4925004;29;20067;-66
2022/03/02 00:52:30;;;;;;;269.60;132.13;;;;;;;14.60;100.00;99047.44;4921217;28;20059;-69
2022/03/02 00:55:21;;;;;;;246.60;128.00;;;;;;;14.63;100.00;99050.72;4921444;29;20051;-69
2022/03/02 00:58:03;;;;;;;270.52;130.95;;;;;;;14.58;100.00;99044.91;4916588;29;20187;-68
2022/03/02 01:00:57;;;;;;;272.50;127.78;;;;;;;14.46;100.00;99051.41;4902373;29;20055;-69
2022/03/02 01:03:33;;;;;;;281.13;135.02;;;;;;;14.37;100.00;99051.72;4923767;28;20075;-68
2022/03/02 01:06:28;;;;;;;284.52;137.20;;;;;;;14.39;100.00;99051.72;4929428;28;20064;-68
2022/03/02 01:09:17;;;;;;;276.05;137.48;;;;;;;14.28;100.00;99059.88;4928939;29;20048;-69
2022/03/02 01:12:06;;;;;;;277.13;136.82;;;;;;;14.32;100.00;99050.22;4930186;29;20124;-69
2022/03/02 01:14:48;;;;;;;273.98;136.40;;;;;;;14.47;100.00;99060.03;4929188;29;20122;-68
2022/03/02 01:17:37;;;;;;;266.05;135.50;;;;;;;14.45;100.00;99056.63;4911701;29;20063;-69
2022/03/02 01:20:19;;;;;;;269.50;135.55;;;;;;;14.41;100.00;99061.13;4909193;29;20092;-68
2022/03/02 01:23:08;;;;;;;295.70;135.57;;;;;;;14.48;100.00;99059.13;4917224;29;20059;-68
2022/03/02 01:25:50;;;;;;;289.95;137.18;;;;;;;14.46;100.00;99059.19;4915773;29;20067;-68
2022/03/02 01:28:39;;;;;;;274.05;134.15;;;;;;;14.49;100.00;99066.00;4873209;29;20069;-69
2022/03/02 01:31:23;;;;;;;266.98;135.18;;;;;;;14.48;100.00;99066.91;4928619;29;20142;-69
2022/03/02 01:34:12;;;;;;;277.35;132.00;;;;;;;14.40;100.00;99062.03;4927502;29;20059;-69
2022/03/02 01:36:54;;;;;;;274.08;135.60;;;;;;;14.47;100.00;99065.22;4926455;29;20525;-69
2022/03/02 01:39:43;;;;;;;265.63;130.70;;;;;;;14.46;100.00;99066.94;4928688;29;20064;-69
2022/03/02 01:42:25;;;;;;;263.60;131.13;;;;;;;14.59;100.00;99059.56;4929334;29;20062;-68
2022/03/02 01:45:17;;;;;;;258.48;129.13;;;;;;;14.53;100.00;99070.13;4922048;29;20519;-68
2022/03/02 01:48:01;;;;;;;254.18;126.40;;;;;;;14.57;100.00;99074.31;4932319;29;20138;-69
2022/03/02 01:50:52;;;;;;;250.07;128.15;;;;;;;14.55;100.00;99074.38;4914723;29;20444;-69
2022/03/02 01:53:35;;;;;;;258.08;129.18;;;;;;;14.64;100.00;99075.75;4926101;29;20060;-69
2022/03/02 01:56:24;;;;;;;245.10;129.20;;;;;;;14.75;100.00;99071.00;4925876;29;20055;-69
2022/03/02 01:59:06;;;;;;;269.00;130.30;;;;;;;14.74;100.00;99078.84;4927177;29;20467;-70
2022/03/02 02:01:55;;;;;;;257.30;128.80;;;;;;;14.76;100.00;99077.88;4925178;29;20090;-69
2022/03/02 02:04:37;;;;;;;262.75;127.93;;;;;;;14.85;100.00;99081.81;4946328;29;20079;-69
2022/03/02 02:07:35;;;;;;;263.52;128.82;;;;;;;14.96;100.00;99083.97;4942874;28;20059;-69
2022/03/02 02:10:23;;;;;;;272.42;129.10;;;;;;;15.04;100.00;99103.50;4916994;29;20063;-70
2022/03/02 02:13:30;;;;;;;262.98;130.23;;;;;;;15.03;100.00;99100.97;4927848;29;20079;-68
2022/03/02 02:16:20;;;;;;;263.02;130.05;;;;;;;15.11;100.00;99107.53;4925636;29;20062;-70
2022/03/02 02:19:10;;;;;;;261.25;130.82;;;;;;;15.13;100.00;99107.47;4906882;28;20062;-69
2022/03/02 02:21:58;;;;;;;267.33;131.00;;;;;;;15.31;100.00;99119.69;4925100;29;20056;-69
2022/03/02 02:24:34;;;;;;;266.75;130.82;;;;;;;15.45;100.00;99130.34;4926623;29;20384;-69
2022/03/02 02:27:22;;;;;;;245.50;127.18;;;;;;;15.68;100.00;99132.81;4926788;29;20503;-69
2022/03/02 02:30:05;;;;;;;266.83;124.70;;;;;;;15.80;100.00;99131.44;4910057;29;20433;-69
2022/03/02 02:32:53;;;;;;;245.75;123.28;;;;;;;15.89;100.00;99144.00;4909311;29;20186;-69
2022/03/02 02:35:35;;;;;;;251.98;125.32;;;;;;;16.10;100.00;99152.63;4923991;29;20067;-69
2022/03/02 02:38:25;;;;;;;234.48;121.50;;;;;;;16.40;100.00;99156.44;4928100;29;20044;-69
2022/03/02 02:41:09;;;;;;;222.18;111.15;;;;;;;16.66;100.00;99157.00;4928815;29;20138;-68
2022/03/02 02:43:57;;;;;;;200.80;102.10;;;;;;;17.02;100.00;99160.44;4926216;29;20127;-69
2022/03/02 02:46:43;;;;;;;187.10;94.80;;;;;;;17.48;100.00;99163.41;4917841;29;20718;-70
2022/03/02 02:49:33;;;;;;;182.48;93.50;;;;;;;17.84;100.00;99174.59;4909062;29;20062;-70
2022/03/02 02:52:15;;;;;;;185.70;92.25;;;;;;;18.20;100.00;99178.78;4926643;29;20047;-70
2022/03/02 02:55:04;;;;;;;180.65;90.88;;;;;;;18.45;100.00;99181.75;4927725;29;20055;-70
2022/03/02 02:57:46;;;;;;;164.75;84.15;;;;;;;18.68;100.00;99188.38;4927621;29;20066;-69
2022/03/02 03:00:38;;;;;;;157.35;79.78;;;;;;;19.12;100.00;99191.13;4927295;29;20138;-70
2022/03/02 03:03:20;;;;;;;150.15;75.70;;;;;;;19.39;100.00;99197.41;4927036;29;20071;-70
2022/03/02 03:06:15;;;;;;;136.23;70.25;;;;;;;19.55;100.00;99194.78;4922803;29;20055;-70
2022/03/02 03:09:03;;;;;;;135.50;67.63;;;;;;;19.33;100.00;99213.41;4923648;29;20428;-69
2022/03/02 03:11:52;;;;;;;128.77;63.97;;;;;;;19.61;97.55;99214.47;4917158;29;20056;-69
2022/03/02 03:14:34;;;;;;;124.60;63.33;;;;;;;19.77;93.30;99217.88;4922827;29;20095;-70
2022/03/02 03:17:22;;;;;;;115.28;62.22;;;;;;;19.85;100.00;99228.72;4925014;29;20578;-69
2022/03/02 03:20:06;;;;;;;107.95;59.50;;;;;;;20.14;92.73;99233.06;4921585;29;20060;-69
2022/03/02 03:22:55;;;;;;;110.30;59.42;;;;;;;20.21;95.35;99249.22;4922734;29;20048;-69
2022/03/02 03:25:37;;;;;;;114.53;58.72;;;;;;;20.46;89.04;99243.38;4921433;29;20066;-69
2022/03/02 03:28:27;;;;;;;96.93;55.88;;;;;;;20.73;87.01;99241.69;4921397;29;20119;-69
2022/03/02 03:31:09;;;;;;;101.32;49.75;;;;;;;21.09;76.86;99243.75;4923946;29;20519;-68
2022/03/02 03:33:57;;;;;;;78.47;38.95;;;;;;;20.99;71.10;99253.16;4925324;29;20048;-69
2022/03/02 03:36:39;;;;;;;72.18;35.78;;;;;;;21.14;70.50;99243.47;4923686;29;20067;-69
2022/03/02 03:39:28;;;;;;;66.60;34.67;;;;;;;21.43;71.13;99252.94;4921643;29;20115;-69
2022/03/02 03:42:12;;;;;;;56.03;32.33;;;;;;;21.70;69.52;99245.03;4921728;29;20052;-68
2022/03/02 03:45:01;;;;;;;57.30;28.15;;;;;;;21.88;70.86;99240.31;4920576;29;20294;-69
2022/03/02 03:47:43;;;;;;;58.25;31.98;;;;;;;21.98;66.15;99244.88;4921480;29;20544;-69
2022/03/02 03:50:32;;;;;;;83.30;39.05;;;;;;;21.70;61.20;99251.13;4926045;29;20558;-70
2022/03/02 03:53:18;;;;;;;67.32;36.65;;;;;;;22.28;61.10;99249.81;4928183;29;20044;-69
2022/03/02 03:56:07;;;;;;;81.38;39.97;;;;;;;22.39;59.74;99256.97;4928329;29;20052;-69
2022/03/02 03:58:49;;;;;;;75.17;44.03;;;;;;;22.75;62.22;99250.94;4925136;29;20047;-69
2022/03/02 04:01:38;;;;;;;89.82;45.40;;;;;;;23.07;62.00;99256.53;4922014;29;20131;-69
2022/03/02 04:04:20;;;;;;;88.10;41.80;;;;;;;23.18;61.50;99248.72;4928327;29;20055;-69
2022/03/02 04:07:14;;;;;;;82.35;40.70;;;;;;;23.34;60.66;99258.97;4927228;28;20060;-68
2022/03/02 04:10:06;;;;;;;74.47;42.08;;;;;;;23.55;62.33;99257.41;4931244;28;20046;-69
2022/03/02 04:12:55;;;;;;;65.85;36.28;;;;;;;23.77;54.37;99265.41;4928479;29;20055;-69
2022/03/02 04:15:38;;;;;;;70.90;34.05;;;;;;;24.33;58.59;99260.28;4909951;29;20163;-69
2022/03/02 04:18:27;;;;;;;43.55;25.50;;;;;;;24.04;52.99;99260.69;4921003;28;20087;-69
2022/03/02 04:21:09;;;;;;;43.83;21.67;;;;;;;24.31;53.79;99262.19;4927948;28;20062;-69
2022/03/02 04:23:58;;;;;;;35.30;21.30;;;;;;;24.63;51.05;99257.91;4926690;29;20685;-68
2022/03/02 04:26:40;;;;;;;45.85;21.23;;;;;;;24.74;51.58;99249.16;4926887;29;20146;-69
2022/03/02 04:29:28;;;;;;;35.35;21.73;;;;;;;24.94;49.31;99256.34;4928081;29;20051;-69
2022/03/02 04:32:10;;;;;;;45.70;23.45;;;;;;;25.02;55.77;99251.28;4920137;28;20047;-69
2022/03/02 04:34:59;;;;;;;42.50;21.92;;;;;;;24.67;50.34;99259.31;4928644;29;20131;-68
2022/03/02 04:37:42;;;;;;;44.17;23.42;;;;;;;24.36;47.41;99255.59;4929868;29;20052;-70
2022/03/02 04:40:31;;;;;;;46.20;24.73;;;;;;;24.86;51.72;99249.97;4909309;28;20123;-69
2022/03/02 04:43:13;;;;;;;55.72;25.70;;;;;;;25.29;53.23;99248.22;4910951;29;20075;-69
2022/03/02 04:46:02;;;;;;;55.03;28.85;;;;;;;25.40;51.91;99250.81;4896256;29;20074;-69
2022/03/02 04:48:51;;;;;;;47.00;24.80;;;;;;;25.79;46.25;99253.78;4914369;29;20103;-69
2022/03/02 04:51:40;;;;;;;37.38;20.27;;;;;;;25.33;47.42;99252.28;4913999;29;20763;-68
2022/03/02 04:57:28;;;;;;;33.33;16.52;;;;;;;25.77;48.45;99250.47;4928649;29;20502;-67
2022/03/02 05:00:27;;;;;;;26.13;17.40;;;;;;;25.77;48.15;99256.59;4923884;28;20098;-69
2022/03/02 05:03:17;;;;;;;33.33;17.33;;;;;;;25.69;47.36;99248.47;4925680;29;20058;-69
2022/03/02 05:05:59;;;;;;;25.38;15.73;;;;;;;26.20;45.94;99258.22;4924746;28;20055;-67
2022/03/02 05:08:54;;;;;;;31.90;16.63;;;;;;;26.00;48.06;99245.88;4907738;28;20052;-67
2022/03/02 05:11:29;;;;;;;32.20;18.33;;;;;;;26.09;47.74;99245.97;4921901;28;20123;-69
2022/03/02 05:14:23;;;;;;;26.42;16.33;;;;;;;26.30;45.86;99248.59;4922049;28;20052;-67
2022/03/02 05:16:58;;;;;;;32.08;15.70;;;;;;;26.26;44.64;99245.38;4921480;28;20064;-68
2022/03/02 05:19:47;;;;;;;27.45;13.23;;;;;;;26.57;45.33;99248.03;4920094;28;20055;-66
2022/03/02 05:22:36;;;;;;;23.33;13.82;;;;;;;26.80;45.81;99243.38;4927998;29;20471;-68
2022/03/02 05:25:31;;;;;;;28.38;15.65;;;;;;;26.70;43.20;99245.13;4925110;29;20055;-69
2022/03/02 05:28:06;;;;;;;30.80;16.00;;;;;;;27.08;45.09;99239.13;4918288;28;20116;-67
2022/03/02 05:31:01;;;;;;;29.83;15.95;;;;;;;26.92;40.99;99240.50;4910758;29;20079;-67
2022/03/02 05:33:37;;;;;;;27.05;15.50;;;;;;;26.97;44.11;99237.47;4926718;28;20135;-68
2022/03/02 05:36:26;;;;;;;25.35;14.45;;;;;;;27.19;43.50;99236.38;4926716;29;20134;-66
2022/03/02 05:39:07;;;;;;;26.00;12.80;;;;;;;26.93;42.82;99236.91;4921244;28;20158;-67
2022/03/02 05:42:02;;;;;;;20.77;12.55;;;;;;;26.65;44.15;99227.06;4918561;28;20055;-68
2022/03/02 05:44:38;;;;;;;24.05;13.45;;;;;;;27.16;45.67;99226.06;4919545;28;20139;-67
2022/03/02 05:47:32;;;;;;;21.23;12.07;;;;;;;27.23;43.89;99224.53;4922099;29;20051;-69
2022/03/02 05:50:10;;;;;;;29.45;13.88;;;;;;;27.44;44.83;99230.56;4923630;29;20048;-69
2022/03/02 05:52:58;;;;;;;24.67;12.43;;;;;;;26.70;41.58;99224.84;4928127;28;20061;-68
2022/03/02 05:55:40;;;;;;;26.58;12.50;;;;;;;27.11;46.28;99217.72;4927209;28;20372;-68
2022/03/02 05:58:35;;;;;;;27.08;12.25;;;;;;;27.64;46.07;99226.94;4922536;29;20098;-68
2022/03/02 06:01:10;;;;;;;26.00;13.43;;;;;;;27.22;42.47;99225.53;4909147;28;20051;-69
2022/03/02 06:04:04;;;;;;;26.55;12.40;;;;;;;27.35;41.85;99223.44;4922493;29;20480;-69
2022/03/02 06:06:53;;;;;;;23.85;11.65;;;;;;;27.33;43.06;99217.44;4916098;29;20495;-69
2022/03/02 06:09:49;;;;;;;30.75;10.85;;;;;;;26.81;42.51;99213.31;4904721;29;20062;-65
2022/03/02 06:12:24;;;;;;;23.67;10.45;;;;;;;26.77;42.63;99207.44;4924105;29;20055;-66
2022/03/02 06:15:20;;;;;;;18.10;9.85;;;;;;;27.10;41.81;99210.75;4911017;29;20484;-65
2022/03/02 06:17:56;;;;;;;19.45;10.07;;;;;;;26.94;42.60;99198.91;4910269;29;20091;-65
2022/03/02 06:20:50;;;;;;;25.90;12.70;;;;;;;26.47;43.23;99191.66;4901263;29;20151;-65
2022/03/02 06:23:38;;;;;;;23.50;12.27;;;;;;;26.87;44.42;99184.53;4909355;29;20147;-65
2022/03/02 06:26:27;;;;;;;29.40;13.60;;;;;;;26.74;41.98;99186.56;4909329;29;20111;-65
2022/03/02 06:29:09;;;;;;;32.38;14.15;;;;;;;27.04;45.10;99181.25;4927597;29;20052;-65
2022/03/02 06:32:04;;;;;;;29.83;14.20;;;;;;;27.06;43.60;99189.00;4922040;29;20067;-65
2022/03/02 06:34:40;;;;;;;25.95;10.40;;;;;;;26.99;39.81;99179.94;4918130;29;20490;-65
2022/03/02 06:37:34;;;;;;;13.55;7.30;;;;;;;27.04;44.66;99175.94;4920961;29;20047;-65
2022/03/02 06:40:11;;;;;;;21.92;9.75;;;;;;;27.37;44.21;99172.06;4926275;29;20052;-66
2022/03/02 06:43:14;;;;;;;22.35;8.05;;;;;;;26.84;45.83;99163.63;4927470;29;20047;-65
2022/03/02 06:46:06;;;;;;;17.83;9.45;;;;;;;27.03;43.45;99163.69;4912565;29;20068;-66
2022/03/02 06:49:07;;;;;;;16.98;9.75;;;;;;;26.52;39.60;99166.47;4919075;29;20063;-65
2022/03/02 06:52:00;;;;;;;26.65;10.02;;;;;;;26.88;42.56;99162.41;4911905;29;20059;-65
2022/03/02 06:54:50;;;;;;;14.35;8.20;;;;;;;25.94;39.54;99162.75;4914823;29;20052;-64
2022/03/02 06:57:32;;;;;;;17.40;8.77;;;;;;;26.71;45.25;99151.63;4917836;29;20055;-65
2022/03/02 07:00:23;;;;;;;23.02;9.93;;;;;;;26.88;44.40;99153.63;4909027;29;20120;-65
2022/03/02 07:03:17;;;;;;;17.25;8.98;;;;;;;26.83;43.88;99156.66;4916106;29;20051;-65
2022/03/02 07:06:01;;;;;;;27.90;9.70;;;;;;;26.80;44.91;99146.38;4918448;29;20044;-65
2022/03/02 07:08:56;;;;;;;17.08;7.88;;;;;;;26.82;44.08;99144.41;4905535;29;20066;-65
2022/03/02 07:11:33;;;;;;;13.88;6.18;;;;;;;26.85;42.08;99138.84;4906436;28;20147;-65
2022/03/02 07:14:23;;;;;;;15.93;5.53;;;;;;;26.77;41.97;99141.34;4923050;28;20056;-65
2022/03/02 07:17:12;;;;;;;14.25;7.47;;;;;;;27.05;42.75;99137.09;4925587;28;20372;-64
2022/03/02 07:19:54;;;;;;;19.60;8.95;;;;;;;26.40;39.18;99132.38;4923110;29;20047;-65
2022/03/02 07:22:48;;;;;;;15.15;7.72;;;;;;;26.64;42.52;99125.75;4907237;29;20082;-64
2022/03/02 07:25:35;;;;;;;14.38;7.93;;;;;;;26.91;44.23;99122.47;4924695;29;20334;-66
2022/03/02 07:28:23;;;;;;;15.85;7.32;;;;;;;27.06;42.51;99122.06;4906862;29;20524;-65
2022/03/02 07:31:14;;;;;;;20.25;7.53;;;;;;;27.09;42.41;99121.78;4897919;29;20060;-65
2022/03/02 07:34:17;;;;;;;16.50;6.82;;;;;;;26.76;42.37;99115.03;4919641;29;20039;-64
2022/03/02 07:37:13;;;;;;;18.88;8.95;;;;;;;26.77;45.45;99100.84;4921791;29;20393;-65
2022/03/02 07:39:50;;;;;;;23.83;8.30;;;;;;;26.65;43.80;99097.50;4903697;29;20052;-65
2022/03/02 07:42:38;;;;;;;17.80;5.63;;;;;;;26.88;42.54;99100.72;4927513;29;20051;-66
2022/03/02 07:45:20;;;;;;;17.08;7.15;;;;;;;26.57;42.06;99090.28;4899780;29;20044;-66
2022/03/02 07:48:10;;;;;;;26.08;7.03;;;;;;;26.55;40.55;99084.28;4920949;28;20059;-66
2022/03/02 07:50:58;;;;;;;21.08;7.82;;;;;;;26.37;42.23;99085.06;4927200;29;20508;-66
2022/03/02 07:53:50;;;;;;;12.02;6.13;;;;;;;26.23;41.40;99080.97;4925740;29;20055;-66
2022/03/02 07:56:40;;;;;;;26.83;9.68;;;;;;;26.27;38.80;99075.31;4924256;29;20475;-66
2022/03/02 07:59:34;;;;;;;13.68;5.85;;;;;;;25.95;40.04;99066.69;4921146;29;20064;-65
2022/03/02 08:02:18;;;;;;;13.80;4.95;;;;;;;25.99;38.42;99059.34;4915560;29;20154;-65
2022/03/02 08:05:08;;;;;;;11.93;5.47;;;;;;;25.95;38.59;99052.66;4928952;28;20731;-65
2022/03/02 08:08:04;;;;;;;15.27;5.18;;;;;;;26.14;40.27;99045.66;4926087;28;20047;-65
2022/03/02 08:10:56;;;;;;;11.43;4.13;;;;;;;25.86;41.20;99046.41;4927472;29;20048;-65
2022/03/02 08:13:45;;;;;;;13.90;4.40;;;;;;;25.66;39.13;99037.56;4927381;29;20044;-66
2022/03/02 08:16:31;;;;;;;19.20;5.57;;;;;;;25.60;39.39;99038.09;4912137;29;20044;-65
2022/03/02 08:19:20;;;;;;;11.93;5.60;;;;;;;25.61;39.15;99036.28;4925481;28;20056;-65
2022/03/02 08:22:18;;;;;;;15.30;6.57;;;;;;;25.45;41.57;99032.28;4928545;29;20143;-65
2022/03/02 08:25:14;;;;;;;12.45;5.30;;;;;;;25.29;40.01;99031.09;4939859;29;20120;-65
2022/03/02 08:27:57;;;;;;;16.30;5.18;;;;;;;25.09;40.35;99023.06;4927658;29;20055;-65
2022/03/02 08:30:47;;;;;;;9.63;5.18;;;;;;;25.35;41.88;99018.22;4923822;29;20110;-66
2022/03/02 08:33:34;;;;;;;21.67;8.48;;;;;;;25.16;40.67;99016.28;4937483;29;20044;-66
2022/03/02 08:36:25;;;;;;;14.65;7.22;;;;;;;25.34;41.67;99008.63;4923077;29;20051;-66
2022/03/02 08:39:14;;;;;;;18.13;8.02;;;;;;;25.36;41.64;99011.97;4929102;29;20055;-65
2022/03/02 08:42:03;;;;;;;24.02;10.07;;;;;;;25.08;41.84;99002.91;4945584;29;20098;-65
2022/03/02 08:44:54;;;;;;;19.27;9.13;;;;;;;25.16;43.37;98997.81;4931192;29;20055;-66
2022/03/02 08:47:36;;;;;;;27.48;11.52;;;;;;;25.04;44.81;98998.03;4935140;29;20059;-65
2022/03/02 08:50:32;;;;;;;33.70;11.48;;;;;;;25.19;44.74;98994.09;4923806;29;20059;-66
2022/03/02 08:53:10;;;;;;;22.60;9.68;;;;;;;25.33;44.41;98988.47;4925039;29;20048;-66
2022/03/02 08:56:03;;;;;;;23.45;8.90;;;;;;;25.27;46.42;98986.38;4926265;29;20068;-65
2022/03/02 08:58:47;;;;;;;23.73;10.95;;;;;;;25.21;47.07;98983.44;4916843;29;20115;-66
2022/03/02 09:01:55;;;;;;;27.48;10.45;;;;;;;25.09;44.66;98977.38;4917489;29;20122;-66
2022/03/02 09:04:34;;;;;;;35.72;12.60;;;;;;;25.21;48.16;98971.09;4920615;29;20070;-66
2022/03/02 09:07:28;;;;;;;27.13;12.02;;;;;;;25.16;47.29;98966.19;4916516;29;20059;-66
2022/03/02 09:10:17;;;;;;;29.25;11.30;;;;;;;25.10;48.11;98961.44;4921402;29;20044;-65
2022/03/02 09:13:05;;;;;;;27.23;12.25;;;;;;;25.13;47.93;98955.91;4921396;29;20048;-65
2022/03/02 09:15:47;;;;;;;30.83;11.90;;;;;;;25.23;46.80;98957.75;4926708;29;20353;-65
2022/03/02 09:18:35;;;;;;;32.72;11.60;;;;;;;25.28;47.95;98959.03;4923535;29;20110;-65
2022/03/02 09:21:20;;;;;;;26.80;11.45;;;;;;;25.18;48.94;98952.88;4921694;29;20472;-65
2022/03/02 09:24:10;;;;;;;22.88;11.23;;;;;;;25.29;48.75;98951.97;4922990;29;20614;-64
2022/03/02 09:26:59;;;;;;;23.98;9.73;;;;;;;25.23;48.66;98948.03;4925663;29;20484;-65
2022/03/02 09:29:42;;;;;;;21.00;10.45;;;;;;;24.88;47.20;98950.19;4922195;29;20053;-65
2022/03/02 09:32:38;;;;;;;25.02;10.23;;;;;;;24.87;50.93;98943.22;4921587;29;20047;-63
2022/03/02 09:35:15;;;;;;;23.63;10.63;;;;;;;24.93;53.50;98932.19;4921735;29;20131;-65
2022/03/02 09:38:03;;;;;;;29.45;11.02;;;;;;;24.81;47.95;98935.84;4922976;29;20067;-65
2022/03/02 09:40:48;;;;;;;20.60;8.88;;;;;;;24.86;50.46;98941.56;4920034;29;20111;-65
2022/03/02 09:43:36;;;;;;;26.08;8.05;;;;;;;24.86;46.82;98936.28;4918318;29;20052;-65
2022/03/02 09:46:23;;;;;;;19.60;8.70;;;;;;;24.69;47.53;98933.25;4925899;29;20804;-64
2022/03/02 09:49:12;;;;;;;26.30;9.73;;;;;;;24.51;49.74;98926.06;4925180;29;20106;-65
2022/03/02 09:52:07;;;;;;;29.35;10.05;;;;;;;24.34;50.91;98925.66;4914667;29;20043;-65
2022/03/02 09:54:58;;;;;;;36.75;13.07;;;;;;;24.28;49.27;98914.78;4916959;29;20790;-65
2022/03/02 09:57:41;;;;;;;28.02;12.73;;;;;;;24.22;48.45;98916.16;4921577;29;20135;-65
2022/03/02 10:00:30;;;;;;;18.67;7.65;;;;;;;24.24;49.97;98913.38;4918184;29;20106;-65
2022/03/02 10:03:16;;;;;;;24.77;9.73;;;;;;;24.32;49.17;98910.97;4918732;28;20052;-65
2022/03/02 10:06:06;;;;;;;20.02;9.60;;;;;;;24.31;51.14;98909.28;4921481;29;20098;-65
2022/03/02 10:09:00;;;;;;;28.35;8.63;;;;;;;24.25;51.20;98910.63;4923254;29;20091;-65
2022/03/02 10:11:50;;;;;;;24.02;8.60;;;;;;;24.48;49.04;98899.97;4924550;29;20067;-63
2022/03/02 10:14:38;;;;;;;22.08;8.77;;;;;;;24.64;49.96;98906.47;4923704;29;20138;-65
2022/03/02 10:17:21;;;;;;;19.67;8.05;;;;;;;24.84;48.36;98902.13;4925809;29;20119;-64
2022/03/02 10:20:21;;;;;;;25.40;7.70;;;;;;;24.95;47.88;98909.19;4910425;29;20067;-65
2022/03/02 10:23:35;;;;;;;15.50;7.50;;;;;;;25.00;48.48;98892.00;4910861;29;20887;-64
2022/03/02 10:26:31;;;;;;;25.58;7.68;;;;;;;25.00;47.73;98901.69;4926554;29;20302;-64
2022/03/02 10:29:35;;;;;;;20.08;7.95;;;;;;;24.86;48.29;98905.50;4927856;29;20482;-65
2022/03/02 10:32:24;;;;;;;18.85;8.13;;;;;;;24.71;48.71;98912.91;4924257;29;20341;-63
2022/03/02 10:35:13;;;;;;;22.75;8.80;;;;;;;24.69;47.08;98914.81;4926209;29;20051;-64
2022/03/02 10:38:12;;;;;;;23.13;8.07;;;;;;;24.56;49.52;98911.56;4924496;29;20570;-65
2022/03/02 10:40:59;;;;;;;20.07;8.60;;;;;;;24.67;47.76;98908.00;4923988;29;20071;-64
2022/03/02 10:44:09;;;;;;;19.52;7.40;;;;;;;24.41;49.79;98907.56;4913000;29;20342;-65
2022/03/02 10:47:01;;;;;;;20.15;7.97;;;;;;;24.36;48.69;98901.81;4917738;29;20051;-65
2022/03/02 10:49:52;;;;;;;19.80;8.80;;;;;;;24.44;51.41;98909.94;4892269;29;20043;-65
2022/03/02 10:52:37;;;;;;;21.00;8.93;;;;;;;24.36;48.38;98915.00;4896963;29;20055;-65
2022/03/02 10:55:27;;;;;;;20.38;7.88;;;;;;;24.29;49.50;98905.94;4920717;29;20122;-65
2022/03/02 10:58:14;;;;;;;38.58;10.32;;;;;;;24.33;50.53;98900.31;4921157;29;20056;-65
2022/03/02 11:01:04;;;;;;;23.75;10.38;;;;;;;24.32;51.56;98895.16;4919380;29;20067;-64
2022/03/02 11:03:54;;;;;;;30.90;10.82;;;;;;;24.31;51.85;98901.38;4923751;29;20461;-65
2022/03/02 11:06:35;;;;;;;26.60;10.10;;;;;;;24.20;51.64;98898.75;4923701;29;20420;-65
2022/03/02 11:09:31;;;;;;;29.48;10.77;;;;;;;24.03;52.41;98890.44;4922152;29;20043;-64
2022/03/02 11:12:09;;;;;;;29.98;10.45;;;;;;;24.12;52.83;98893.28;4922553;29;20416;-64
2022/03/02 11:15:11;;;;;;;28.23;8.98;;;;;;;24.22;55.32;98894.25;4925249;29;20083;-64
2022/03/02 11:18:05;;;;;;;36.25;9.77;;;;;;;23.97;52.43;98896.22;4917477;29;20071;-64
2022/03/02 11:21:08;;;;;;;24.02;8.25;;;;;;;23.76;52.12;98900.59;4920838;29;20209;-64
2022/03/02 11:23:57;;;;;;;23.90;7.78;;;;;;;23.67;51.63;98896.06;4926543;29;20134;-64
2022/03/02 11:26:52;;;;;;;29.48;8.57;;;;;;;23.56;51.48;98894.28;4917882;29;20056;-64
2022/03/02 11:29:28;;;;;;;23.58;7.45;;;;;;;23.59;50.78;98899.31;4923300;29;20060;-64
2022/03/02 11:32:17;;;;;;;22.70;8.07;;;;;;;23.38;51.59;98902.78;4925991;29;20055;-65
2022/03/02 11:35:04;;;;;;;28.08;7.60;;;;;;;23.35;53.12;98900.38;4927920;29;20191;-64
2022/03/02 11:37:59;;;;;;;23.77;7.13;;;;;;;23.42;53.14;98901.56;4921926;29;20052;-64
2022/03/02 11:40:51;;;;;;;19.15;7.78;;;;;;;23.35;54.13;98903.00;4925983;29;20052;-65
2022/03/02 11:43:34;;;;;;;20.20;7.85;;;;;;;23.17;53.34;98907.91;4935376;29;20055;-63
2022/03/02 11:46:22;;;;;;;17.70;8.15;;;;;;;23.05;53.36;98907.09;4950628;29;20043;-64
2022/03/02 11:49:05;;;;;;;22.80;7.22;;;;;;;23.00;54.50;98914.47;4936588;29;20055;-64
2022/03/02 11:52:14;;;;;;;17.10;7.45;;;;;;;22.95;53.92;98910.53;4930759;29;20531;-64
2022/03/02 11:55:05;;;;;;;17.45;6.78;;;;;;;22.92;52.79;98910.75;4926914;29;20484;-63
2022/03/02 11:57:57;;;;;;;18.30;5.40;;;;;;;22.87;51.95;98911.13;4928785;29;20132;-65
2022/03/02 12:00:39;;;;;;;16.85;5.53;;;;;;;22.75;50.13;98914.69;4929898;29;20058;-65
2022/03/02 12:03:30;;;;;;;15.30;5.13;;;;;;;22.73;51.00;98906.06;4929054;29;20063;-64
2022/03/02 12:06:17;;;;;;;21.75;6.70;;;;;;;22.74;50.55;98900.72;4925682;29;20143;-63
2022/03/02 12:09:12;;;;;;;18.23;6.53;;;;;;;22.69;50.91;98894.09;4929584;29;20106;-67
2022/03/02 12:11:48;;;;;;;20.80;6.95;;;;;;;22.66;52.38;98899.59;4927888;29;20047;-65
2022/03/02 12:14:44;;;;;;;22.08;7.80;;;;;;;22.67;53.25;98898.66;4920364;29;20052;-64
2022/03/02 12:17:36;;;;;;;21.38;8.05;;;;;;;22.63;53.21;98894.56;4917876;29;20056;-64
2022/03/02 12:20:25;;;;;;;20.15;8.15;;;;;;;22.73;55.05;98890.31;4924207;29;20059;-64
2022/03/02 12:23:07;;;;;;;25.23;9.70;;;;;;;22.61;55.15;98885.97;4909210;29;20152;-64
2022/03/02 12:26:00;;;;;;;24.38;8.63;;;;;;;22.55;55.18;98892.53;4924934;29;20115;-64
2022/03/02 12:28:41;;;;;;;26.65;9.02;;;;;;;22.47;54.82;98898.38;4926502;29;20428;-64
2022/03/02 12:31:32;;;;;;;27.60;8.90;;;;;;;22.40;55.08;98894.53;4921411;29;20139;-64
2022/03/02 12:34:23;;;;;;;18.20;8.23;;;;;;;22.48;56.80;98899.19;4928374;29;20067;-64
2022/03/02 12:37:14;;;;;;;24.55;9.85;;;;;;;22.41;58.72;98908.50;4920082;29;20075;-64
2022/03/02 12:40:00;;;;;;;29.40;10.55;;;;;;;22.28;59.46;98903.31;4913686;29;20056;-64
2022/03/02 12:42:48;;;;;;;30.80;12.00;;;;;;;22.22;59.92;98910.81;4929380;29;20064;-64
2022/03/02 12:45:30;;;;;;;29.38;11.38;;;;;;;22.21;61.32;98912.59;4933518;29;20631;-64
2022/03/02 12:48:28;;;;;;;28.23;11.25;;;;;;;22.19;61.56;98916.28;4931328;29;20420;-64
2022/03/02 12:51:28;;;;;;;42.22;12.25;;;;;;;22.05;61.30;98914.66;4921234;29;20139;-63
2022/03/02 12:54:17;;;;;;;35.97;10.40;;;;;;;21.99;61.10;98920.38;4910710;29;20774;-64